createdAt,value
2018-10-09T00:00:13.161Z,8.70
2018-10-09T00:02:48.734Z,8.70
2018-10-09T00:05:29.659Z,8.50
2018-10-09T00:08:06.387Z,8.50
2018-10-09T00:10:42.376Z,8.60
2018-10-09T00:13:17.643Z,8.40
2018-10-09T00:15:53.452Z,8.40
2018-10-09T00:18:29.219Z,8.50
2018-10-09T00:21:05.036Z,8.60
2018-10-09T00:23:41.910Z,8.60
2018-10-09T00:26:17.292Z,8.70
2018-10-09T00:28:55.537Z,8.60
2018-10-09T00:31:31.199Z,8.60
2018-10-09T00:34:08.754Z,8.60
2018-10-09T00:36:46.379Z,8.60
2018-10-09T00:39:24.857Z,8.60
2018-10-09T00:42:03.452Z,8.60
2018-10-09T00:44:40.643Z,8.50
2018-10-09T00:49:59.502Z,8.40
2018-10-09T00:52:35.189Z,8.40
2018-10-09T00:55:11.429Z,8.50
2018-10-09T00:57:46.878Z,8.60
2018-10-09T01:00:25.491Z,8.60
2018-10-09T01:03:01.483Z,8.40
2018-10-09T01:05:37.628Z,8.40
2018-10-09T01:08:13.430Z,8.40
2018-10-09T01:11:00.547Z,8.40
2018-10-09T01:13:36.697Z,8.60
2018-10-09T01:16:12.676Z,8.50
2018-10-09T01:18:47.683Z,8.60
2018-10-09T01:21:24.594Z,8.70
2018-10-09T01:26:39.774Z,8.50
2018-10-09T01:29:16.718Z,8.60
2018-10-09T01:31:53.852Z,8.70
2018-10-09T01:34:29.819Z,8.70
2018-10-09T01:37:07.612Z,8.80
2018-10-09T01:39:43.763Z,8.70
2018-10-09T01:42:19.331Z,8.80
2018-10-09T01:44:54.827Z,8.90
2018-10-09T01:47:30.648Z,9.00
2018-10-09T01:50:06.786Z,9.00
2018-10-09T01:52:42.846Z,9.10
2018-10-09T01:55:20.178Z,9.20
2018-10-09T01:57:57.322Z,9.30
2018-10-09T02:00:32.946Z,9.40
2018-10-09T02:03:09.740Z,9.30
2018-10-09T02:05:45.074Z,9.50
2018-10-09T02:08:20.465Z,9.60
2018-10-09T02:10:56.091Z,9.70
2018-10-09T02:13:31.871Z,9.60
2018-10-09T02:16:10.804Z,9.70
2018-10-09T02:18:46.916Z,9.70
2018-10-09T02:21:24.458Z,9.80
2018-10-09T02:24:02.976Z,9.80
2018-10-09T02:26:39.038Z,9.80
2018-10-09T02:29:15.883Z,9.80
2018-10-09T02:31:52.360Z,9.70
2018-10-09T02:34:28.662Z,9.70
2018-10-09T02:37:04.825Z,9.80
2018-10-09T02:39:41.287Z,9.90
2018-10-09T02:42:17.157Z,9.80
2018-10-09T02:44:52.960Z,9.70
2018-10-09T02:47:29.762Z,9.70
2018-10-09T02:50:07.263Z,9.70
2018-10-09T02:52:44.827Z,9.70
2018-10-09T02:55:22.846Z,9.50
2018-10-09T02:57:58.369Z,9.40
2018-10-09T03:00:34.237Z,9.30
2018-10-09T03:03:11.406Z,9.30
2018-10-09T03:05:48.100Z,9.30
2018-10-09T03:11:02.152Z,9.20
2018-10-09T03:13:40.153Z,9.30
2018-10-09T03:16:17.643Z,9.30
2018-10-09T03:18:54.033Z,9.20
2018-10-09T03:21:28.993Z,9.30
2018-10-09T03:24:05.526Z,9.30
2018-10-09T03:26:41.368Z,9.30
2018-10-09T03:29:18.267Z,9.30
2018-10-09T03:31:55.116Z,9.30
2018-10-09T03:34:34.209Z,9.20
2018-10-09T03:37:10.997Z,9.10
2018-10-09T03:39:49.479Z,9.10
2018-10-09T03:42:25.122Z,9.10
2018-10-09T03:45:01.357Z,9.10
2018-10-09T03:47:37.604Z,9.10
2018-10-09T03:50:13.344Z,9.10
2018-10-09T03:52:49.133Z,9.00
2018-10-09T03:55:24.991Z,9.10
2018-10-09T03:58:01.729Z,9.10
2018-10-09T04:00:40.157Z,9.10
2018-10-09T04:03:22.635Z,9.20
2018-10-09T04:05:59.358Z,9.00
2018-10-09T04:08:36.373Z,8.90
2018-10-09T04:11:11.610Z,8.80
2018-10-09T04:13:47.082Z,8.80
2018-10-09T04:16:25.440Z,8.70
2018-10-09T04:19:02.161Z,8.70
2018-10-09T04:21:37.839Z,8.70
2018-10-09T04:24:12.900Z,8.60
2018-10-09T04:26:48.048Z,8.50
2018-10-09T04:29:23.150Z,8.40
2018-10-09T04:31:58.159Z,8.30
2018-10-09T04:34:33.292Z,8.30
2018-10-09T04:37:08.433Z,8.40
2018-10-09T04:39:45.604Z,8.50
2018-10-09T04:42:31.172Z,8.60
2018-10-09T04:45:06.849Z,8.50
2018-10-09T04:47:41.733Z,8.60
2018-10-09T04:50:18.792Z,8.70
2018-10-09T04:52:53.721Z,8.90
2018-10-09T04:55:28.621Z,8.90
2018-10-09T04:58:04.149Z,9.00
2018-10-09T05:00:39.512Z,8.90
2018-10-09T05:03:14.642Z,9.00
2018-10-09T05:05:49.408Z,9.00
2018-10-09T05:08:24.201Z,9.00
2018-10-09T05:10:59.122Z,9.00
2018-10-09T05:13:34.119Z,9.10
2018-10-09T05:16:09.252Z,9.10
2018-10-09T05:18:44.244Z,9.10
2018-10-09T05:21:19.366Z,9.10
2018-10-09T05:23:54.149Z,9.20
2018-10-09T05:26:29.075Z,9.20
2018-10-09T05:29:04.239Z,9.30
2018-10-09T05:31:39.180Z,9.40
2018-10-09T05:34:14.412Z,9.40
2018-10-09T05:36:49.552Z,9.40
2018-10-09T05:39:24.249Z,9.40
2018-10-09T05:41:59.048Z,9.50
2018-10-09T05:44:33.976Z,9.50
2018-10-09T05:47:09.274Z,9.60
2018-10-09T05:49:44.343Z,9.70
2018-10-09T05:52:19.723Z,9.90
2018-10-09T05:54:54.329Z,9.90
2018-10-09T05:57:29.310Z,10.00
2018-10-09T06:00:04.922Z,10.10
2018-10-09T06:02:39.889Z,10.10
2018-10-09T06:05:14.910Z,10.20
2018-10-09T06:07:50.083Z,10.20
2018-10-09T06:13:54.691Z,10.40
2018-10-09T06:16:50.457Z,10.40
2018-10-09T06:22:50.529Z,10.50
2018-10-09T06:25:25.227Z,10.60
2018-10-09T06:28:03.269Z,10.50
2018-10-09T06:31:02.880Z,10.50
2018-10-09T06:33:45.051Z,10.60
2018-10-09T06:36:30.182Z,10.70
2018-10-09T06:39:06.977Z,10.80
2018-10-09T06:41:42.608Z,10.90
2018-10-09T06:44:17.539Z,11.10
2018-10-09T06:46:52.393Z,11.30
2018-10-09T06:49:27.448Z,11.40
2018-10-09T06:52:02.759Z,11.50
2018-10-09T06:54:37.468Z,11.70
2018-10-09T06:57:12.095Z,11.70
2018-10-09T06:59:46.563Z,11.90
2018-10-09T07:02:21.470Z,12.00
2018-10-09T07:04:56.052Z,12.20
2018-10-09T07:07:30.716Z,12.30
2018-10-09T07:10:05.418Z,12.30
2018-10-09T07:12:40.058Z,12.50
2018-10-09T07:15:14.750Z,12.70
2018-10-09T07:17:49.201Z,12.70
2018-10-09T07:20:23.693Z,12.80
2018-10-09T07:22:58.717Z,12.90
2018-10-09T07:25:33.342Z,13.10
2018-10-09T07:28:07.833Z,13.10
2018-10-09T07:30:42.340Z,13.20
2018-10-09T07:33:17.004Z,13.30
2018-10-09T07:35:51.573Z,13.50
2018-10-09T07:38:25.955Z,13.60
2018-10-09T07:41:00.603Z,13.70
2018-10-09T07:43:35.181Z,13.90
2018-10-09T07:46:09.749Z,13.90
2018-10-09T07:48:44.241Z,13.90
2018-10-09T07:51:18.805Z,13.90
2018-10-09T07:53:53.517Z,13.90
2018-10-09T07:56:28.106Z,13.90
2018-10-09T07:59:02.546Z,14.00
2018-10-09T08:01:37.458Z,14.20
2018-10-09T08:04:12.218Z,14.10
2018-10-09T08:06:46.758Z,14.10
2018-10-09T08:09:21.279Z,14.20
2018-10-09T08:11:55.905Z,14.30
2018-10-09T08:14:30.687Z,14.40
2018-10-09T08:17:05.372Z,14.30
2018-10-09T08:19:39.998Z,14.60
2018-10-09T08:22:14.811Z,14.50
2018-10-09T08:24:49.405Z,14.50
2018-10-09T08:27:23.978Z,14.40
2018-10-09T08:29:58.492Z,14.70
2018-10-09T08:32:33.039Z,14.80
2018-10-09T08:35:07.764Z,14.90
2018-10-09T08:37:42.624Z,15.20
2018-10-09T08:40:17.271Z,15.30
2018-10-09T08:42:51.651Z,15.30
2018-10-09T08:45:26.057Z,15.50
2018-10-09T08:48:00.665Z,15.60
2018-10-09T08:50:35.879Z,15.70
2018-10-09T08:53:10.558Z,16.00
2018-10-09T08:55:45.265Z,16.30
2018-10-09T08:58:19.938Z,16.30
2018-10-09T09:00:54.368Z,16.40
2018-10-09T09:03:29.144Z,16.60
2018-10-09T09:06:03.865Z,16.70
2018-10-09T09:08:38.419Z,17.00
2018-10-09T09:11:12.913Z,17.40
2018-10-09T09:13:47.514Z,17.60
2018-10-09T09:16:22.027Z,17.80
2018-10-09T09:18:56.523Z,18.10
2018-10-09T09:21:31.820Z,18.60
2018-10-09T09:24:06.389Z,18.90
2018-10-09T09:26:41.112Z,19.00
2018-10-09T09:29:15.615Z,18.90
2018-10-09T09:31:50.417Z,19.00
2018-10-09T09:34:25.011Z,19.10
2018-10-09T09:36:59.815Z,18.90
2018-10-09T09:39:34.295Z,18.80
2018-10-09T09:42:08.761Z,18.80
2018-10-09T09:44:43.355Z,18.80
2018-10-09T09:47:17.738Z,18.50
2018-10-09T09:49:52.293Z,18.20
2018-10-09T09:52:26.804Z,18.50
2018-10-09T09:55:01.289Z,18.90
2018-10-09T09:57:36.029Z,19.30
2018-10-09T10:00:15.698Z,19.70
2018-10-09T10:02:50.204Z,19.60
2018-10-09T10:05:24.626Z,19.60
2018-10-09T10:07:59.362Z,20.00
2018-10-09T10:10:34.042Z,20.00
2018-10-09T10:13:09.050Z,21.10
2018-10-09T10:15:43.707Z,21.60
2018-10-09T10:18:18.306Z,22.00
2018-10-09T10:20:52.970Z,22.50
2018-10-09T10:23:27.789Z,22.10
2018-10-09T10:26:02.395Z,22.30
2018-10-09T10:28:37.233Z,22.60
2018-10-09T10:31:11.946Z,22.90
2018-10-09T10:33:46.354Z,23.00
2018-10-09T10:36:20.874Z,23.40
2018-10-09T10:38:56.266Z,24.00
2018-10-09T10:41:30.982Z,23.40
2018-10-09T10:44:05.780Z,23.20
2018-10-09T10:46:41.570Z,23.40
2018-10-09T10:49:16.664Z,24.30
2018-10-09T10:51:51.127Z,24.70
2018-10-09T10:54:26.757Z,25.00
2018-10-09T10:57:01.422Z,24.80
2018-10-09T10:59:40.045Z,24.60
2018-10-09T11:02:14.610Z,24.60
2018-10-09T11:04:49.256Z,24.60
2018-10-09T11:07:23.979Z,24.60
2018-10-09T11:09:58.734Z,24.50
2018-10-09T11:12:33.301Z,24.50
2018-10-09T11:15:09.442Z,24.80
2018-10-09T11:17:43.945Z,25.10
2018-10-09T11:20:19.121Z,25.40
2018-10-09T11:22:53.974Z,25.50
2018-10-09T11:25:28.633Z,25.70
2018-10-09T11:28:03.441Z,25.00
2018-10-09T11:30:38.078Z,24.90
2018-10-09T11:33:12.726Z,25.00
2018-10-09T11:35:47.162Z,25.20
2018-10-09T11:38:21.714Z,25.30
2018-10-09T11:40:56.401Z,25.10
2018-10-09T11:43:30.872Z,24.80
2018-10-09T11:46:05.998Z,24.90
2018-10-09T11:48:40.677Z,24.90
2018-10-09T11:51:15.358Z,25.10
2018-10-09T11:53:52.004Z,24.80
2018-10-09T11:56:26.425Z,24.50
2018-10-09T11:59:01.773Z,24.50
2018-10-09T12:01:36.375Z,24.30
2018-10-09T12:04:11.077Z,23.90
2018-10-09T12:06:45.682Z,23.80
2018-10-09T12:09:24.157Z,24.00
2018-10-09T12:11:58.726Z,24.10
2018-10-09T12:14:33.400Z,24.30
2018-10-09T12:17:07.938Z,24.60
2018-10-09T12:19:42.697Z,24.80
2018-10-09T12:22:17.365Z,24.90
2018-10-09T12:24:51.886Z,25.10
2018-10-09T12:27:26.515Z,24.80
2018-10-09T12:30:01.301Z,24.50
2018-10-09T12:32:35.805Z,24.80
2018-10-09T12:35:10.447Z,24.90
2018-10-09T12:37:44.963Z,25.60
2018-10-09T12:40:19.509Z,26.20
2018-10-09T12:42:54.018Z,26.10
2018-10-09T12:45:29.137Z,26.10
2018-10-09T12:48:03.802Z,26.30
2018-10-09T12:50:38.293Z,26.50
2018-10-09T12:53:13.183Z,26.60
2018-10-09T12:55:47.800Z,26.70
2018-10-09T12:58:22.423Z,26.80
2018-10-09T13:00:56.805Z,26.80
2018-10-09T13:03:31.613Z,26.90
2018-10-09T13:06:06.216Z,26.60
2018-10-09T13:08:40.958Z,26.90
2018-10-09T13:11:15.619Z,27.80
2018-10-09T13:13:50.169Z,28.40
2018-10-09T13:16:24.981Z,28.30
2018-10-09T13:18:59.606Z,27.40
2018-10-09T13:21:34.321Z,27.30
2018-10-09T13:24:08.915Z,27.70
2018-10-09T13:26:43.487Z,27.40
2018-10-09T13:29:18.180Z,27.20
2018-10-09T13:31:52.769Z,27.10
2018-10-09T13:34:27.445Z,26.60
2018-10-09T13:37:01.958Z,26.90
2018-10-09T13:39:36.605Z,27.50
2018-10-09T13:42:11.135Z,27.30
2018-10-09T13:44:45.770Z,27.10
2018-10-09T13:47:20.386Z,27.50
2018-10-09T13:49:55.064Z,27.80
2018-10-09T13:52:29.582Z,27.80
2018-10-09T13:55:04.744Z,28.10
2018-10-09T13:57:39.455Z,28.80
2018-10-09T14:00:14.171Z,29.00
2018-10-09T14:02:48.718Z,28.90
2018-10-09T14:05:23.296Z,29.20
2018-10-09T14:07:58.024Z,29.00
2018-10-09T14:10:32.534Z,28.00
2018-10-09T14:13:07.346Z,28.10
2018-10-09T14:15:41.965Z,28.20
2018-10-09T14:18:17.746Z,28.40
2018-10-09T14:21:00.612Z,28.30
2018-10-09T14:23:35.183Z,28.10
2018-10-09T14:26:09.817Z,27.80
2018-10-09T14:28:44.233Z,27.10
2018-10-09T14:31:21.758Z,26.50
2018-10-09T14:34:00.543Z,26.10
2018-10-09T14:36:48.233Z,26.30
2018-10-09T14:39:32.608Z,27.00
2018-10-09T14:42:10.016Z,26.60
2018-10-09T14:44:47.773Z,26.20
2018-10-09T14:47:24.736Z,26.00
2018-10-09T14:50:04.802Z,25.70
2018-10-09T14:52:45.847Z,25.60
2018-10-09T14:55:22.080Z,25.50
2018-10-09T14:58:14.760Z,25.50
2018-10-09T15:00:49.358Z,25.60
2018-10-09T15:03:29.216Z,25.50
2018-10-09T15:06:06.263Z,25.50
2018-10-09T15:08:46.941Z,25.50
2018-10-09T15:11:23.153Z,25.40
2018-10-09T15:13:58.096Z,24.60
2018-10-09T15:16:34.984Z,23.80
2018-10-09T15:19:18.402Z,23.60
2018-10-09T15:21:54.794Z,23.70
2018-10-09T15:24:29.843Z,24.00
2018-10-09T15:27:04.718Z,23.70
2018-10-09T15:29:40.451Z,23.20
2018-10-09T15:32:15.703Z,23.10
2018-10-09T15:34:50.186Z,22.90
2018-10-09T15:37:25.217Z,22.60
2018-10-09T15:39:59.618Z,22.50
2018-10-09T15:42:34.264Z,22.40
2018-10-09T15:45:08.972Z,22.40
2018-10-09T15:47:43.460Z,22.40
2018-10-09T15:50:18.049Z,22.20
2018-10-09T15:52:52.823Z,22.20
2018-10-09T15:55:27.596Z,22.20
2018-10-09T15:58:02.317Z,22.10
2018-10-09T16:00:37.958Z,21.80
2018-10-09T16:03:12.653Z,21.70
2018-10-09T16:05:47.429Z,21.50
2018-10-09T16:08:21.948Z,21.30
2018-10-09T16:10:57.914Z,21.10
2018-10-09T16:13:32.525Z,20.80
2018-10-09T16:16:07.451Z,20.60
2018-10-09T16:18:41.982Z,20.30
2018-10-09T16:21:16.792Z,19.90
2018-10-09T16:23:51.265Z,19.70
2018-10-09T16:26:26.628Z,19.20
2018-10-09T16:29:01.363Z,18.80
2018-10-09T16:31:35.852Z,18.60
2018-10-09T16:34:10.389Z,18.30
2018-10-09T16:36:44.898Z,18.00
2018-10-09T16:39:19.607Z,17.90
2018-10-09T16:41:54.090Z,17.60
2018-10-09T16:44:28.808Z,17.40
2018-10-09T16:47:05.028Z,17.20
2018-10-09T16:49:39.587Z,17.00
2018-10-09T16:52:16.503Z,16.90
2018-10-09T16:54:51.140Z,16.70
2018-10-09T16:57:26.627Z,16.60
2018-10-09T17:00:03.482Z,16.50
2018-10-09T17:02:39.002Z,16.40
2018-10-09T17:05:13.814Z,16.30
2018-10-09T17:07:48.514Z,16.10
2018-10-09T17:10:23.083Z,16.00
2018-10-09T17:12:57.874Z,15.80
2018-10-09T17:15:35.085Z,15.80
2018-10-09T17:18:10.094Z,15.70
2018-10-09T17:20:44.999Z,15.60
2018-10-09T17:23:19.954Z,15.60
2018-10-09T17:25:55.710Z,15.50
2018-10-09T17:28:30.380Z,15.40
2018-10-09T17:31:06.559Z,15.30
2018-10-09T17:33:41.367Z,15.20
2018-10-09T17:36:16.222Z,15.10
2018-10-09T17:38:51.468Z,15.10
2018-10-09T17:41:26.308Z,15.00
2018-10-09T17:44:01.570Z,14.90
2018-10-09T17:46:36.397Z,14.90
2018-10-09T17:49:21.444Z,14.80
2018-10-09T17:51:58.597Z,14.70
2018-10-09T17:54:33.537Z,14.70
2018-10-09T17:57:08.521Z,14.60
2018-10-09T17:59:44.210Z,14.60
2018-10-09T18:02:25.551Z,14.50
2018-10-09T18:05:00.017Z,14.50
2018-10-09T18:11:03.437Z,14.40
2018-10-09T18:13:38.929Z,14.50
2018-10-09T18:16:18.938Z,14.50
2018-10-09T18:18:54.701Z,14.40
2018-10-09T18:21:30.470Z,14.40
2018-10-09T18:24:11.333Z,14.30
2018-10-09T18:26:53.121Z,14.30
2018-10-09T18:29:29.791Z,14.20
2018-10-09T18:32:04.936Z,14.20
2018-10-09T18:34:40.166Z,14.20
2018-10-09T18:37:16.580Z,14.10
2018-10-09T18:39:51.992Z,14.10
2018-10-09T18:42:26.532Z,14.00
2018-10-09T18:45:02.245Z,14.00
2018-10-09T18:47:42.401Z,14.00
2018-10-09T18:50:17.364Z,13.90
2018-10-09T18:52:55.601Z,13.90
2018-10-09T18:55:33.631Z,13.90
2018-10-09T18:58:08.583Z,13.90
2018-10-09T19:00:43.328Z,13.90
2018-10-09T19:03:18.083Z,13.80
2018-10-09T19:05:53.607Z,13.80
2018-10-09T19:08:28.356Z,13.80
2018-10-09T19:11:03.756Z,13.80
2018-10-09T19:13:38.408Z,13.80
2018-10-09T19:16:13.786Z,13.70
2018-10-09T19:18:48.796Z,13.80
2018-10-09T19:21:25.582Z,13.70
2018-10-09T19:24:00.373Z,13.70
2018-10-09T19:26:34.976Z,13.70
2018-10-09T19:29:12.076Z,13.70
2018-10-09T19:31:47.190Z,13.70
2018-10-09T19:34:22.863Z,13.70
2018-10-09T19:36:57.752Z,13.70
2018-10-09T19:39:32.620Z,13.60
2018-10-09T19:42:08.356Z,13.60
2018-10-09T19:44:42.885Z,13.50
2018-10-09T19:47:17.592Z,13.50
2018-10-09T19:49:54.257Z,13.50
2018-10-09T19:52:28.854Z,13.60
2018-10-09T19:55:03.579Z,13.60
2018-10-09T19:57:38.959Z,13.50
2018-10-09T20:00:13.965Z,13.40
2018-10-09T20:02:50.568Z,13.40
2018-10-09T20:05:26.232Z,13.30
2018-10-09T20:08:04.596Z,13.30
2018-10-09T20:10:39.178Z,13.20
2018-10-09T20:13:14.797Z,13.10
2018-10-09T20:15:49.705Z,12.90
2018-10-09T20:18:24.397Z,12.90
2018-10-09T20:21:01.481Z,12.90
2018-10-09T20:23:37.901Z,12.90
2018-10-09T20:26:15.355Z,12.80
2018-10-09T20:28:54.259Z,12.60
2018-10-09T20:31:30.472Z,12.50
2018-10-09T20:34:10.302Z,12.40
2018-10-09T20:36:48.084Z,12.30
2018-10-09T20:39:23.715Z,12.30
2018-10-09T20:42:00.150Z,12.20
2018-10-09T20:44:38.898Z,12.30
2018-10-09T20:47:24.896Z,12.20
2018-10-09T20:50:01.702Z,12.10
2018-10-09T20:52:37.655Z,12.00
2018-10-09T20:55:15.308Z,12.00
2018-10-09T20:58:19.794Z,12.00
2018-10-09T21:00:57.866Z,11.90
2018-10-09T21:03:38.854Z,11.80
2018-10-09T21:06:15.525Z,11.80
2018-10-09T21:08:54.221Z,11.70
2018-10-09T21:11:33.506Z,11.60
2018-10-09T21:14:15.835Z,11.60
2018-10-09T21:16:58.382Z,11.50
2018-10-09T21:19:33.549Z,11.40
2018-10-09T21:22:08.683Z,11.40
2018-10-09T21:24:44.409Z,11.40
2018-10-09T21:27:21.483Z,11.40
2018-10-09T21:30:06.065Z,11.30
2018-10-09T21:32:43.637Z,11.20
2018-10-09T21:35:23.988Z,11.10
2018-10-09T21:40:46.215Z,11.10
2018-10-09T21:43:22.307Z,11.10
2018-10-09T21:45:58.962Z,11.00
2018-10-09T21:48:34.635Z,11.00
2018-10-09T21:51:10.157Z,11.10
2018-10-09T21:53:52.559Z,11.00
2018-10-09T21:56:28.367Z,11.00
2018-10-09T21:59:04.955Z,11.00
2018-10-09T22:01:40.058Z,11.00
2018-10-09T22:04:16.371Z,11.00
2018-10-09T22:06:54.008Z,11.00
2018-10-09T22:09:29.641Z,11.00
2018-10-09T22:12:07.051Z,10.90
2018-10-09T22:14:42.902Z,10.80
2018-10-09T22:17:18.653Z,10.80
2018-10-09T22:19:53.994Z,10.70
2018-10-09T22:22:30.044Z,10.80
2018-10-09T22:25:05.648Z,10.70
2018-10-09T22:27:44.092Z,10.60
2018-10-09T22:30:19.628Z,10.50
2018-10-09T22:32:56.511Z,10.60
2018-10-09T22:35:32.261Z,10.70
2018-10-09T22:38:09.634Z,10.60
2018-10-09T22:40:47.942Z,10.60
2018-10-09T22:43:23.953Z,10.50
2018-10-09T22:48:38.793Z,10.30
2018-10-09T22:51:16.364Z,10.30
2018-10-09T22:53:52.477Z,10.40
2018-10-09T22:56:28.723Z,10.50
2018-10-09T22:59:05.871Z,10.50
2018-10-09T23:01:41.533Z,10.40
2018-10-09T23:04:16.961Z,10.20
2018-10-09T23:06:53.749Z,10.20
2018-10-09T23:09:30.991Z,10.10
2018-10-09T23:12:06.567Z,10.00
2018-10-09T23:14:42.317Z,9.90
2018-10-09T23:17:19.625Z,9.80
2018-10-09T23:19:55.672Z,9.80
2018-10-09T23:22:32.089Z,9.70
2018-10-09T23:25:07.722Z,9.60
2018-10-09T23:27:44.219Z,9.70
2018-10-09T23:33:01.407Z,9.60
2018-10-09T23:35:37.931Z,9.60
2018-10-09T23:38:13.993Z,9.50
2018-10-09T23:40:52.122Z,9.50
2018-10-09T23:43:28.561Z,9.50
2018-10-09T23:46:09.015Z,9.60
2018-10-09T23:48:45.715Z,9.60
2018-10-09T23:51:21.639Z,9.60
2018-10-09T23:53:58.051Z,9.60
2018-10-09T23:56:34.604Z,9.60
2018-10-09T23:59:11.012Z,9.60
